Time;durP1;ratioP1;P1;durP2;ratioP2;P2;SDS_P1;SDS_P2;PMS_P1;PMS_P2;Temp;Humidity;BMP_temperature;BMP_pressure;BME280_temperature;BME280_humidity;BME280_pressure;Samples;Min_cycle;Max_cycle;Signal;HPM_P1;HPM_P2
2019/04/28 00:01:33;;;;;;;6.2;2;;;;;;;4.69;87.1543;962.7316;;;;
2019/04/28 00:03:57;;;;;;;6.1;2.4;;;;;;;4.76;87.19043;962.7924;;;;
2019/04/28 00:06:22;;;;;;;5.9;2.8;;;;;;;4.72;85.93555;962.7856;;;;
2019/04/28 00:08:47;;;;;;;6.3;3.1;;;;;;;4.84;85.98047;962.7917;;;;
2019/04/28 00:11:12;;;;;;;5.9;2.8;;;;;;;4.8;85.15527;962.7894;;;;
2019/04/28 00:13:37;;;;;;;5.6;2.2;;;;;;;4.71;83.87695;962.7778;;;;
2019/04/28 00:16:03;;;;;;;2.5;1.2;;;;;;;4.65;83.91016;962.7768;;;;
2019/04/28 00:18:30;;;;;;;3.6;1.3;;;;;;;4.68;86.20898;962.6547;;;;
2019/04/28 00:21:19;;;;;;;4.3;1.5;;;;;;;4.77;86.79688;962.6234;;;;
2019/04/28 00:23:27;;;;;;;3.1;1.3;;;;;;;4.73;86.01563;962.5828;;;;
2019/04/28 00:25:54;;;;;;;2.4;1.2;;;;;;;4.79;88.23242;962.622;;;;
2019/04/28 00:28:10;;;;;;;2.4;1.3;;;;;;;4.76;86.66797;962.5728;;;;
2019/04/28 00:30:35;;;;;;;2.8;1.2;;;;;;;4.7;84.34082;962.5418;;;;
2019/04/28 00:33:00;;;;;;;4.3;1.5;;;;;;;4.76;86.31738;962.5552;;;;
2019/04/28 00:35:25;;;;;;;2.7;1.3;;;;;;;4.56;84.5166;962.5627;;;;
2019/04/28 00:37:50;;;;;;;4;1.5;;;;;;;4.69;86.40527;962.525;;;;
2019/04/28 00:40:15;;;;;;;4.1;1.5;;;;;;;4.84;86.69531;962.5117;;;;
2019/04/28 00:42:41;;;;;;;4.4;2.3;;;;;;;4.77;84.94531;962.4725;;;;
2019/04/28 00:45:06;;;;;;;3.4;2.1;;;;;;;4.83;88.5332;962.4777;;;;
2019/04/28 00:47:32;;;;;;;6.2;2.9;;;;;;;4.79;86.94824;962.4547;;;;
2019/04/28 00:49:57;;;;;;;6.4;3.1;;;;;;;4.85;86.71094;962.4551;;;;
2019/04/28 00:52:23;;;;;;;3.9;1.9;;;;;;;5.07;85.91406;962.5367;;;;
2019/04/28 00:54:49;;;;;;;4.1;1.9;;;;;;;4.99;86.52246;962.55;;;;
2019/04/28 00:57:18;;;;;;;3.4;1.9;;;;;;;5.09;86.43945;962.5659;;;;
2019/04/28 00:59:43;;;;;;;2.8;1.8;;;;;;;5.12;87.08203;962.5294;;;;
2019/04/28 01:02:14;;;;;;;3.4;1.9;;;;;;;4.96;88.61816;962.5948;;;;
2019/04/28 01:04:33;;;;;;;2.6;1.5;;;;;;;4.95;88.23047;962.63;;;;
2019/04/28 01:06:58;;;;;;;3;1.5;;;;;;;5.06;89.37695;962.6194;;;;
2019/04/28 01:09:24;;;;;;;2.1;1.6;;;;;;;5.14;89.51953;962.5842;;;;
2019/04/28 01:11:49;;;;;;;3.2;1.6;;;;;;;5.17;88.83203;962.6293;;;;
2019/04/28 01:14:14;;;;;;;3;1.7;;;;;;;5.2;88.26855;962.6409;;;;
2019/04/28 01:16:45;;;;;;;2.3;1.5;;;;;;;5.26;87.99902;962.6713;;;;
2019/04/28 01:19:08;;;;;;;3.9;2.2;;;;;;;5.26;88.11328;962.6841;;;;
2019/04/28 01:22:08;;;;;;;4.9;2.6;;;;;;;5.32;88.06934;962.6375;;;;
2019/04/28 01:23:54;;;;;;;6.1;3;;;;;;;5.36;87.55371;962.7946;;;;
2019/04/28 01:26:19;;;;;;;4.4;2.6;;;;;;;5.36;88.89355;962.7863;;;;
2019/04/28 01:28:46;;;;;;;4.7;2.9;;;;;;;5.3;89.13281;962.7385;;;;
2019/04/28 01:31:21;;;;;;;3.7;2.3;;;;;;;5.41;88.99609;962.7352;;;;
2019/04/28 01:36:02;;;;;;;4.5;2.6;;;;;;;5.48;89.875;962.8005;;;;
2019/04/28 01:38:27;;;;;;;3.7;2.1;;;;;;;5.49;89.41016;962.8381;;;;
2019/04/28 01:40:53;;;;;;;5.1;2.5;;;;;;;5.51;89.12988;962.8674;;;;
2019/04/28 01:43:18;;;;;;;3.1;2.2;;;;;;;5.51;89.07324;962.8633;;;;
2019/04/28 01:45:43;;;;;;;3.5;1.9;;;;;;;5.52;87.62988;962.8497;;;;
2019/04/28 01:48:09;;;;;;;4.4;2;;;;;;;5.73;85.33008;962.871;;;;
2019/04/28 01:50:34;;;;;;;4.4;2.5;;;;;;;5.71;87.46582;962.9712;;;;
2019/04/28 01:52:59;;;;;;;4.5;2.1;;;;;;;5.7;86.39453;962.9717;;;;
2019/04/28 01:55:24;;;;;;;4.3;1.8;;;;;;;5.59;85.41699;963.0692;;;;
2019/04/28 01:57:49;;;;;;;4.7;1.9;;;;;;;5.61;86.53516;963.0892;;;;
2019/04/28 02:00:15;;;;;;;4;2.3;;;;;;;5.63;84.60449;963.1014;;;;
2019/04/28 02:02:40;;;;;;;6;2.6;;;;;;;5.57;85.35449;963.0058;;;;
2019/04/28 02:05:05;;;;;;;4.9;2.6;;;;;;;5.46;84.13867;963.0123;;;;
2019/04/28 02:07:30;;;;;;;6.5;3.6;;;;;;;5.36;85.45996;962.9803;;;;
2019/04/28 02:09:55;;;;;;;5.3;2.9;;;;;;;5.32;86.19141;962.9953;;;;
2019/04/28 02:12:20;;;;;;;5.1;3;;;;;;;5.41;86.74414;963.0243;;;;
2019/04/28 02:14:45;;;;;;;5.4;2.9;;;;;;;5.38;85.45313;963.0131;;;;
2019/04/28 02:17:10;;;;;;;5.4;2.9;;;;;;;5.37;85.01953;963.035;;;;
2019/04/28 02:19:36;;;;;;;6.2;3.1;;;;;;;;;;;;;
2019/04/28 02:22:17;;;;;;;4.4;2.5;;;;;;;;;;;;;
2019/04/28 02:24:31;;;;;;;3.8;2;;;;;;;;;;;;;
2019/04/28 02:26:52;;;;;;;3.5;2.2;;;;;;;;;;;;;
2019/04/28 02:29:17;;;;;;;5.5;2.7;;;;;;;;;;;;;
2019/04/28 02:31:42;;;;;;;4.1;2.4;;;;;;;;;;;;;
2019/04/28 02:34:07;;;;;;;4.1;2.3;;;;;;;;;;;;;
2019/04/28 02:36:32;;;;;;;4.4;2.2;;;;;;;;;;;;;
2019/04/28 02:38:57;;;;;;;4;2.2;;;;;;;;;;;;;
2019/04/28 02:41:22;;;;;;;4.7;2.4;;;;;;;;;;;;;
2019/04/28 02:43:47;;;;;;;4;2.3;;;;;;;;;;;;;
2019/04/28 02:46:14;;;;;;;3.5;2.2;;;;;;;;;;;;;
2019/04/28 02:48:39;;;;;;;3.1;2;;;;;;;;;;;;;
2019/04/28 02:51:10;;;;;;;3.5;1.9;;;;;;;;;;;;;
2019/04/28 02:53:31;;;;;;;4.2;2.2;;;;;;;;;;;;;
2019/04/28 02:55:57;;;;;;;2.8;1.7;;;;;;;;;;;;;
2019/04/28 02:58:22;;;;;;;3.3;2;;;;;;;;;;;;;
2019/04/28 03:00:48;;;;;;;5.1;2.2;;;;;;;;;;;;;
2019/04/28 03:03:13;;;;;;;3.1;1.6;;;;;;;;;;;;;
2019/04/28 03:05:38;;;;;;;3.5;1.5;;;;;;;;;;;;;
2019/04/28 03:08:03;;;;;;;2.5;1.4;;;;;;;;;;;;;
2019/04/28 03:10:28;;;;;;;3.5;1.5;;;;;;;;;;;;;
2019/04/28 03:12:53;;;;;;;3.3;1.4;;;;;;;;;;;;;
2019/04/28 03:15:18;;;;;;;3.3;1.5;;;;;;;;;;;;;
2019/04/28 03:17:43;;;;;;;2.5;1.3;;;;;;;;;;;;;
2019/04/28 03:20:08;;;;;;;2.8;1.3;;;;;;;;;;;;;
2019/04/28 03:22:34;;;;;;;3.6;1.7;;;;;;;;;;;;;
2019/04/28 03:25:01;;;;;;;2.4;1.5;;;;;;;;;;;;;
2019/04/28 03:27:37;;;;;;;3.2;1.5;;;;;;;;;;;;;
2019/04/28 03:30:02;;;;;;;3;1.4;;;;;;;;;;;;;
2019/04/28 03:33:14;;;;;;;2.8;1.4;;;;;;;;;;;;;
2019/04/28 03:34:44;;;;;;;3.9;1.6;;;;;;;;;;;;;
2019/04/28 03:37:04;;;;;;;5.5;1.6;;;;;;;;;;;;;
2019/04/28 03:39:29;;;;;;;4;1.6;;;;;;;;;;;;;
2019/04/28 03:41:55;;;;;;;3.6;1.4;;;;;;;;;;;;;
2019/04/28 03:44:20;;;;;;;5;1.4;;;;;;;;;;;;;
2019/04/28 03:46:49;;;;;;;3.1;1.3;;;;;;;;;;;;;
2019/04/28 03:49:29;;;;;;;3.6;1.5;;;;;;;;;;;;;
2019/04/28 03:51:35;;;;;;;3.6;1.5;;;;;;;;;;;;;
2019/04/28 03:54:00;;;;;;;4.6;1.6;;;;;;;;;;;;;
2019/04/28 03:56:26;;;;;;;3.2;1.3;;;;;;;;;;;;;
2019/04/28 03:58:51;;;;;;;4.3;1.6;;;;;;;;;;;;;
2019/04/28 04:02:28;;;;;;;4.3;1.6;;;;;;;4.92;81.45313;963.2219;;;;
2019/04/28 04:04:53;;;;;;;6;1.5;;;;;;;5.03;83.16992;963.2322;;;;
2019/04/28 04:07:18;;;;;;;4.1;1.7;;;;;;;5.01;81.29004;963.1689;;;;
2019/04/28 04:09:56;;;;;;;3.7;1.6;;;;;;;5;81.65039;963.2;;;;
2019/04/28 04:12:29;;;;;;;4;1.8;;;;;;;4.96;83.1543;963.1373;;;;
2019/04/28 04:14:58;;;;;;;3.9;1.6;;;;;;;4.81;81.74121;963.133;;;;
2019/04/28 04:17:41;;;;;;;5.6;1.7;;;;;;;4.89;82.94922;963.1069;;;;
2019/04/28 04:19:24;;;;;;;4.5;1.8;;;;;;;4.89;81.62988;963.0988;;;;
2019/04/28 04:21:49;;;;;;;5.8;1.8;;;;;;;5.02;81.47168;963.1125;;;;
2019/04/28 04:24:15;;;;;;;4.4;1.6;;;;;;;4.81;81.49121;963.0297;;;;
2019/04/28 04:26:40;;;;;;;7.4;2.1;;;;;;;4.95;83.11816;962.9142;;;;
2019/04/28 04:29:05;;;;;;;5.2;2.3;;;;;;;4.95;83.59375;963.0352;;;;
2019/04/28 04:31:30;;;;;;;7.3;2.3;;;;;;;4.83;84.29785;962.9861;;;;
2019/04/28 04:33:55;;;;;;;6.3;2.5;;;;;;;4.98;86.21387;962.9428;;;;
2019/04/28 04:36:21;;;;;;;5.1;2;;;;;;;5.14;84.66699;962.894;;;;
2019/04/28 04:38:46;;;;;;;5.6;1.9;;;;;;;5.29;83.12598;962.9202;;;;
2019/04/28 04:41:11;;;;;;;7;2.3;;;;;;;5.19;84.62012;962.8782;;;;
2019/04/28 04:43:36;;;;;;;6.2;2;;;;;;;5.14;85.48438;962.9202;;;;
2019/04/28 04:46:17;;;;;;;5.4;2.1;;;;;;;5.04;86.71484;962.9645;;;;
2019/04/28 04:48:27;;;;;;;6.2;2.1;;;;;;;5.05;85.73926;962.9381;;;;
2019/04/28 04:50:52;;;;;;;4.7;2.1;;;;;;;5.15;84.95215;962.9758;;;;
2019/04/28 04:53:17;;;;;;;5.7;2.2;;;;;;;5.15;84.79297;962.9758;;;;
2019/04/28 04:55:43;;;;;;;5.1;2;;;;;;;5.3;83.31152;962.9494;;;;
2019/04/28 04:58:09;;;;;;;5.1;1.8;;;;;;;5.15;83.06543;963.0228;;;;
2019/04/28 05:00:46;;;;;;;4.8;2;;;;;;;5.18;85.40137;963.0385;;;;
2019/04/28 05:03:08;;;;;;;6.3;2.4;;;;;;;5.1;83.15723;963.0477;;;;
2019/04/28 05:05:30;;;;;;;4.7;1.9;;;;;;;5.07;85.11816;963.019;;;;
2019/04/28 05:07:51;;;;;;;6;2;;;;;;;5.25;85.88281;962.9949;;;;
2019/04/28 05:10:19;;;;;;;6.6;2.2;;;;;;;5.26;85.80371;962.9902;;;;
2019/04/28 05:12:44;;;;;;;5.2;1.9;;;;;;;5.29;85.12891;963.0618;;;;
2019/04/28 05:15:09;;;;;;;5.8;1.9;;;;;;;5.23;83.65137;962.9619;;;;
2019/04/28 05:17:34;;;;;;;4;2.1;;;;;;;5.33;83.35059;962.8998;;;;
2019/04/28 05:19:59;;;;;;;5.3;2;;;;;;;5.37;85.99805;962.945;;;;
2019/04/28 05:22:26;;;;;;;5.9;2;;;;;;;5.28;83.6377;962.9589;;;;
2019/04/28 05:24:54;;;;;;;5.9;2.1;;;;;;;5.32;82.88477;962.9219;;;;
2019/04/28 05:27:14;;;;;;;4;1.8;;;;;;;5.37;81.74512;962.8716;;;;
2019/04/28 05:29:40;;;;;;;6;2;;;;;;;5.17;81.28516;962.8836;;;;
2019/04/28 05:32:06;;;;;;;3.7;1.9;;;;;;;5.39;82.13477;962.8703;;;;
2019/04/28 05:34:33;;;;;;;3.8;1.7;;;;;;;5.52;81.01172;962.858;;;;
2019/04/28 05:36:58;;;;;;;4.9;1.9;;;;;;;5.34;81.58105;962.856;;;;
2019/04/28 05:39:23;;;;;;;3.9;1.6;;;;;;;5.21;81.47559;962.8557;;;;
2019/04/28 05:41:48;;;;;;;4;1.6;;;;;;;5.3;81.38965;962.8889;;;;
2019/04/28 05:44:13;;;;;;;3.6;1.5;;;;;;;5.61;81.63184;962.8953;;;;
2019/04/28 05:46:40;;;;;;;4.4;1.6;;;;;;;5.45;80.17969;962.9746;;;;
2019/04/28 05:49:18;;;;;;;4.4;1.6;;;;;;;5.15;80.49707;962.9153;;;;
2019/04/28 05:51:31;;;;;;;5.9;1.9;;;;;;;5.24;82.53906;962.8879;;;;
2019/04/28 05:54:10;;;;;;;5.2;1.9;;;;;;;5.38;83.68945;962.9269;;;;
2019/04/28 06:00:31;;;;;;;5.1;2.1;;;;;;;5.46;81.45508;962.9952;;;;
2019/04/28 06:02:45;;;;;;;6;2;;;;;;;5.46;82.36523;962.9694;;;;
2019/04/28 06:05:09;;;;;;;3.8;1.6;;;;;;;5.68;81.82813;962.9558;;;;
2019/04/28 06:07:42;;;;;;;5;1.8;;;;;;;5.73;82.96289;963.0003;;;;
2019/04/28 06:09:59;;;;;;;6;2.2;;;;;;;5.74;80.07422;963.0125;;;;
2019/04/28 06:12:25;;;;;;;4.2;1.8;;;;;;;5.86;79.72168;962.9573;;;;
2019/04/28 06:14:52;;;;;;;5.1;1.7;;;;;;;5.72;79.71582;962.9622;;;;
2019/04/28 06:17:17;;;;;;;4.4;1.7;;;;;;;5.69;77.10547;962.9682;;;;
2019/04/28 06:19:43;;;;;;;4.6;1.7;;;;;;;5.6;79.63965;963.0168;;;;
2019/04/28 06:22:08;;;;;;;4.8;1.6;;;;;;;5.6;78.81836;962.9998;;;;
2019/04/28 06:24:33;;;;;;;5.4;1.8;;;;;;;5.67;78.43359;963.0472;;;;
2019/04/28 06:27:00;;;;;;;5;1.8;;;;;;;5.74;79.01563;963.0986;;;;
2019/04/28 06:29:25;;;;;;;5.1;1.7;;;;;;;5.82;78.34766;963.0552;;;;
2019/04/28 06:31:51;;;;;;;5.1;1.6;;;;;;;5.92;79.24219;963.0873;;;;
2019/04/28 06:34:16;;;;;;;5.1;2;;;;;;;6.11;76.96484;963.0848;;;;
2019/04/28 06:36:43;;;;;;;3.9;1.8;;;;;;;5.98;77.30664;963.1314;;;;
2019/04/28 06:39:08;;;;;;;5.1;1.8;;;;;;;5.85;77.10059;963.0744;;;;
2019/04/28 06:41:34;;;;;;;5;2;;;;;;;6;77.20703;963.1303;;;;
2019/04/28 06:44:00;;;;;;;4.2;1.6;;;;;;;6.01;75.5332;963.1167;;;;
2019/04/28 06:46:25;;;;;;;4.6;1.8;;;;;;;5.99;75.70215;963.1785;;;;
2019/04/28 06:48:50;;;;;;;4.3;1.8;;;;;;;6.24;76.9873;963.1322;;;;
2019/04/28 06:51:16;;;;;;;5.9;2;;;;;;;6.43;77.41992;963.1503;;;;
2019/04/28 06:53:41;;;;;;;5;1.8;;;;;;;6.39;74.53125;963.183;;;;
2019/04/28 06:56:06;;;;;;;4.1;1.7;;;;;;;6.35;75.40137;963.2202;;;;
2019/04/28 06:58:31;;;;;;;4.9;1.9;;;;;;;6.49;76.1543;963.1333;;;;
2019/04/28 07:00:57;;;;;;;5.5;1.7;;;;;;;6.57;74.18652;963.1408;;;;
2019/04/28 07:03:22;;;;;;;4.6;1.5;;;;;;;6.83;74.93848;963.1926;;;;
2019/04/28 07:05:47;;;;;;;3.3;1.5;;;;;;;7.08;74.04688;963.1154;;;;
2019/04/28 07:08:12;;;;;;;5.4;1.8;;;;;;;7.18;74.21191;963.1259;;;;
2019/04/28 07:10:37;;;;;;;6.9;2;;;;;;;7.11;72.60156;963.157;;;;
2019/04/28 07:13:02;;;;;;;4;1.6;;;;;;;7.05;71.62207;963.1735;;;;
2019/04/28 07:15:27;;;;;;;5.3;1.8;;;;;;;7.06;74.33887;963.1431;;;;
2019/04/28 07:17:53;;;;;;;5.2;1.7;;;;;;;6.98;72.28125;963.1311;;;;
2019/04/28 07:20:32;;;;;;;3.4;1.7;;;;;;;6.88;72.4834;963.1422;;;;
2019/04/28 07:22:43;;;;;;;4.2;1.7;;;;;;;6.81;71.80762;963.134;;;;
2019/04/28 07:25:10;;;;;;;4;1.9;;;;;;;6.81;73.96387;963.1641;;;;
2019/04/28 07:27:35;;;;;;;5.6;1.9;;;;;;;7.01;72.98438;963.1638;;;;
2019/04/28 07:30:01;;;;;;;3.8;1.9;;;;;;;7.08;70.25488;963.1631;;;;
2019/04/28 07:32:27;;;;;;;4.5;2;;;;;;;6.85;70.64063;963.1788;;;;
2019/04/28 07:34:53;;;;;;;5.3;1.9;;;;;;;7.04;74.42676;963.2136;;;;
2019/04/28 07:37:18;;;;;;;5.6;1.5;;;;;;;7.17;69.07227;963.1917;;;;
2019/04/28 07:39:46;;;;;;;4.8;1.5;;;;;;;7.23;68.7041;963.2045;;;;
2019/04/28 07:42:11;;;;;;;4.7;1.8;;;;;;;7.37;71.05566;963.213;;;;
2019/04/28 07:44:41;;;;;;;4.5;1.5;;;;;;;7.45;69.5625;963.3022;;;;
2019/04/28 07:47:06;;;;;;;4.5;2;;;;;;;7.55;70.65234;963.2781;;;;
2019/04/28 07:49:31;;;;;;;5.1;1.7;;;;;;;7.41;67.44141;963.2403;;;;
2019/04/28 07:52:07;;;;;;;4.9;1.5;;;;;;;7.57;68.71289;963.2075;;;;
2019/04/28 07:54:23;;;;;;;4.6;1.7;;;;;;;7.53;68.13574;963.236;;;;
2019/04/28 07:56:48;;;;;;;4;1.5;;;;;;;7.45;68.35156;963.2113;;;;
2019/04/28 07:59:14;;;;;;;3.7;1.5;;;;;;;7.73;67.81055;963.2399;;;;
2019/04/28 08:01:39;;;;;;;5.1;1.6;;;;;;;7.91;67.12012;963.1619;;;;
2019/04/28 08:04:04;;;;;;;5.3;1.5;;;;;;;7.85;65.08691;963.1533;;;;
2019/04/28 08:06:29;;;;;;;6.2;1.6;;;;;;;7.82;65.93945;963.1903;;;;
2019/04/28 08:08:54;;;;;;;4.7;1.6;;;;;;;7.76;66.57129;963.2111;;;;
2019/04/28 08:11:19;;;;;;;5.4;1.8;;;;;;;7.69;64.42285;963.2249;;;;
2019/04/28 08:13:44;;;;;;;5.4;1.7;;;;;;;7.71;65.85254;963.1806;;;;
2019/04/28 08:16:10;;;;;;;4.3;1.7;;;;;;;7.81;66.23438;963.1735;;;;
2019/04/28 08:18:37;;;;;;;5.6;1.7;;;;;;;8.05;63.02344;963.1522;;;;
2019/04/28 08:21:02;;;;;;;4;1.3;;;;;;;7.94;62.69824;963.1987;;;;
2019/04/28 08:23:27;;;;;;;4.3;1.6;;;;;;;8.02;64.23047;963.1155;;;;
2019/04/28 08:25:52;;;;;;;5.2;1.6;;;;;;;7.89;66.30469;963.0337;;;;
2019/04/28 08:28:18;;;;;;;4.5;1.4;;;;;;;7.9;64.14453;963.0588;;;;
2019/04/28 08:30:43;;;;;;;3.2;1.3;;;;;;;8.23;64.02344;963.0781;;;;
2019/04/28 08:35:35;;;;;;;4.9;1.7;;;;;;;8.53;61.44336;963.0396;;;;
2019/04/28 08:38:00;;;;;;;6.9;1.6;;;;;;;8.68;58.85254;963.0159;;;;
2019/04/28 08:40:25;;;;;;;4.2;1.4;;;;;;;8.35;59.32324;963.117;;;;
2019/04/28 08:42:50;;;;;;;4.4;1.4;;;;;;;8.38;61.77734;963.098;;;;
2019/04/28 08:45:15;;;;;;;4.4;1.4;;;;;;;8.64;62.77734;963.0657;;;;
2019/04/28 08:47:40;;;;;;;4.6;1.5;;;;;;;8.62;58.79785;963.0724;;;;
2019/04/28 08:50:06;;;;;;;4.6;1.6;;;;;;;8.69;61.83301;963.0926;;;;
2019/04/28 08:52:31;;;;;;;3.8;1.6;;;;;;;8.79;59.39453;963.1028;;;;
2019/04/28 08:54:57;;;;;;;5.9;1.6;;;;;;;8.95;59.17578;963.0951;;;;
2019/04/28 08:57:24;;;;;;;4;1.3;;;;;;;9.18;61.65137;963.1209;;;;
2019/04/28 08:59:49;;;;;;;5.5;1.7;;;;;;;9.2;63.17969;963.1025;;;;
2019/04/28 09:02:14;;;;;;;3.6;1.6;;;;;;;9.16;65.70801;963.1316;;;;
2019/04/28 09:04:39;;;;;;;4;1.5;;;;;;;9.44;62.5957;963.2056;;;;
2019/04/28 09:07:05;;;;;;;5.2;1.4;;;;;;;9.48;60.07617;963.2802;;;;
2019/04/28 09:09:30;;;;;;;5;1.5;;;;;;;9.39;58.39844;963.2394;;;;
2019/04/28 09:11:57;;;;;;;4.3;1.3;;;;;;;9.24;60.15723;963.2723;;;;
2019/04/28 09:14:22;;;;;;;4.3;1.5;;;;;;;9.2;60.3125;963.258;;;;
2019/04/28 09:16:48;;;;;;;3.6;1.6;;;;;;;9.08;59.3418;963.233;;;;
2019/04/28 09:19:13;;;;;;;3.6;1.5;;;;;;;9.03;57.40918;963.2925;;;;
2019/04/28 09:21:38;;;;;;;5.9;2.8;;;;;;;8.91;61.53223;963.2756;;;;
2019/04/28 09:24:03;;;;;;;4.8;2;;;;;;;8.77;64.18359;963.3552;;;;
2019/04/28 09:26:28;;;;;;;4.3;1.8;;;;;;;8.72;64.45117;963.5062;;;;
2019/04/28 09:28:53;;;;;;;4.5;1.6;;;;;;;8.11;67.47266;963.4985;;;;
2019/04/28 09:31:19;;;;;;;4.6;2.2;;;;;;;7.89;70.18262;963.5352;;;;
2019/04/28 09:33:44;;;;;;;2.6;1.2;;;;;;;7.51;70.62402;963.5314;;;;
2019/04/28 09:36:12;;;;;;;4;1.6;;;;;;;7.23;73.79688;963.6155;;;;
2019/04/28 09:38:37;;;;;;;4.1;1.7;;;;;;;6.99;74.29395;963.5623;;;;
2019/04/28 09:41:03;;;;;;;4.7;1.4;;;;;;;6.88;76.36133;963.613;;;;
2019/04/28 09:48:18;;;;;;;4.7;1.7;;;;;;;6.99;79.72656;963.6401;;;;
2019/04/28 09:50:44;;;;;;;3.5;1.5;;;;;;;7.08;76.14551;963.6039;;;;
2019/04/28 09:53:14;;;;;;;3.6;1.6;;;;;;;6.91;76.82422;963.5417;;;;
2019/04/28 09:55:39;;;;;;;4;1.7;;;;;;;6.86;79.92969;963.5405;;;;
2019/04/28 09:58:05;;;;;;;4.3;2;;;;;;;6.98;80.27148;963.546;;;;
2019/04/28 10:00:30;;;;;;;3.3;1.7;;;;;;;7.06;76.55469;963.4495;;;;
2019/04/28 10:02:55;;;;;;;4.6;2;;;;;;;7.08;79.59473;963.4395;;;;
2019/04/28 10:05:20;;;;;;;4.5;2.8;;;;;;;7.3;80.77832;963.4335;;;;
2019/04/28 10:07:45;;;;;;;3.2;1.7;;;;;;;7.46;77.91602;963.4749;;;;
2019/04/28 10:10:10;;;;;;;5.2;1.9;;;;;;;7.7;78.12012;963.3929;;;;
2019/04/28 10:12:35;;;;;;;3.5;1.6;;;;;;;7.84;74.53223;963.3658;;;;
2019/04/28 10:15:02;;;;;;;6;2;;;;;;;7.91;74.79492;963.296;;;;
2019/04/28 10:17:27;;;;;;;3.5;1.6;;;;;;;8.01;73.39355;963.2805;;;;
2019/04/28 10:19:54;;;;;;;4;1.6;;;;;;;8.36;73.51074;963.2942;;;;
2019/04/28 10:22:19;;;;;;;3.7;1.6;;;;;;;8.61;69.85254;963.2636;;;;
2019/04/28 10:24:44;;;;;;;5;1.6;;;;;;;8.74;71.9375;963.2411;;;;
2019/04/28 10:27:09;;;;;;;5.3;1.8;;;;;;;8.97;69.44238;963.2149;;;;
2019/04/28 10:29:34;;;;;;;3.5;1.3;;;;;;;9.31;71.67773;963.2328;;;;
2019/04/28 10:31:59;;;;;;;3.9;1.6;;;;;;;9.33;64.8291;963.1877;;;;
2019/04/28 10:34:25;;;;;;;3.8;1.4;;;;;;;9.51;64.74121;963.2042;;;;
2019/04/28 10:36:50;;;;;;;3.3;1.5;;;;;;;9.73;63.82031;963.205;;;;
2019/04/28 10:39:25;;;;;;;3.4;1.5;;;;;;;9.86;62.19629;963.1727;;;;
2019/04/28 10:41:41;;;;;;;4.6;1.6;;;;;;;10;59.36523;963.0969;;;;
2019/04/28 10:44:06;;;;;;;3.6;1.3;;;;;;;10.04;59.63574;962.9497;;;;
2019/04/28 10:46:31;;;;;;;3.5;1.4;;;;;;;10.02;53.62207;962.96;;;;
2019/04/28 10:48:57;;;;;;;4.2;1.6;;;;;;;10.15;57.51367;962.9104;;;;
2019/04/28 10:51:22;;;;;;;2.9;1.5;;;;;;;10.56;56.46191;962.895;;;;
2019/04/28 10:53:47;;;;;;;5.9;1.5;;;;;;;10.71;52.35938;962.9308;;;;
2019/04/28 10:56:12;;;;;;;2.9;1.5;;;;;;;10.82;48.94238;962.9255;;;;
2019/04/28 10:58:38;;;;;;;4.3;1.4;;;;;;;10.75;51.83496;962.8359;;;;
2019/04/28 11:01:02;;;;;;;4.3;1.7;;;;;;;11.65;54.24023;962.8342;;;;
2019/04/28 11:03:28;;;;;;;3.3;1.6;;;;;;;12.76;50.87305;962.762;;;;
2019/04/28 11:05:53;;;;;;;3.8;1.9;;;;;;;13.62;44.91211;962.8007;;;;
2019/04/28 11:08:32;;;;;;;2.2;1.1;;;;;;;14.71;48.26758;962.7341;;;;
2019/04/28 11:10:43;;;;;;;4.3;2.3;;;;;;;14.9;45.02051;962.738;;;;
2019/04/28 11:13:10;;;;;;;4.3;1.5;;;;;;;13.68;44.29297;962.6942;;;;
2019/04/28 11:15:36;;;;;;;3.4;1.7;;;;;;;12.4;46.24219;962.5853;;;;
2019/04/28 11:18:00;;;;;;;4.9;1.7;;;;;;;12.03;48.87109;962.5659;;;;
2019/04/28 11:20:26;;;;;;;4.6;1.7;;;;;;;12.64;52.84863;962.6031;;;;
2019/04/28 11:22:51;;;;;;;2.6;1.5;;;;;;;12.51;46.9248;962.5014;;;;
2019/04/28 11:25:16;;;;;;;3.6;1.5;;;;;;;12.42;46.07227;962.4918;;;;
2019/04/28 11:27:41;;;;;;;3.1;1.5;;;;;;;13.07;44.06934;962.5502;;;;
2019/04/28 11:30:06;;;;;;;3.5;1.8;;;;;;;14.24;41.36621;962.4615;;;;
2019/04/28 11:32:31;;;;;;;3.1;1.5;;;;;;;14.2;41.22266;962.5309;;;;
2019/04/28 11:35:14;;;;;;;3.2;1.5;;;;;;;14.53;42.69434;962.4546;;;;
2019/04/28 11:37:23;;;;;;;3.4;1.7;;;;;;;14.66;46.36719;962.4247;;;;
2019/04/28 11:39:48;;;;;;;3.8;1.7;;;;;;;13.75;45.04102;962.495;;;;
2019/04/28 11:42:13;;;;;;;3.5;1.5;;;;;;;12.94;48.32422;962.5366;;;;
2019/04/28 11:44:38;;;;;;;4.3;1.8;;;;;;;12.49;49.32715;962.5027;;;;
2019/04/28 11:47:07;;;;;;;4;1.8;;;;;;;11.84;48.71094;962.4606;;;;
2019/04/28 11:49:30;;;;;;;4.6;1.9;;;;;;;11.68;47.14648;962.4225;;;;
2019/04/28 11:51:58;;;;;;;4;2.3;;;;;;;11.41;52.83691;962.5062;;;;
2019/04/28 11:54:23;;;;;;;5.3;1.6;;;;;;;11.56;49.06055;962.5019;;;;
2019/04/28 11:56:53;;;;;;;3.9;1.9;;;;;;;11.45;48.22852;962.4417;;;;
2019/04/28 11:59:18;;;;;;;5.9;2.7;;;;;;;11.98;48.27637;962.457;;;;
2019/04/28 12:01:43;;;;;;;4.6;2.9;;;;;;;12.53;44.9043;962.4819;;;;
2019/04/28 12:04:10;;;;;;;4.1;1.8;;;;;;;12.05;44.51953;962.446;;;;
2019/04/28 12:06:34;;;;;;;5.3;2.8;;;;;;;11.58;48.2666;962.4224;;;;
2019/04/28 12:09:19;;;;;;;3.9;2.3;;;;;;;11.33;49.77246;962.4221;;;;
2019/04/28 12:11:28;;;;;;;5;2.1;;;;;;;11.42;49.875;962.4271;;;;
2019/04/28 12:14:12;;;;;;;4.4;2;;;;;;;11.96;47.60547;962.3276;;;;
2019/04/28 12:23:03;;;;;;;4;1.8;;;;;;;11.18;46.87305;962.4434;;;;
2019/04/28 12:25:28;;;;;;;3.4;2.1;;;;;;;11.22;48.13477;962.4224;;;;
2019/04/28 12:27:54;;;;;;;3.9;2;;;;;;;11.6;50.17188;962.3727;;;;
2019/04/28 12:30:19;;;;;;;3.7;1.8;;;;;;;11.95;43.73535;962.3553;;;;
2019/04/28 12:32:44;;;;;;;2.6;1.1;;;;;;;12.04;44.16016;962.3781;;;;
2019/04/28 12:35:15;;;;;;;2.3;1;;;;;;;12.25;44.02051;962.3851;;;;
2019/04/28 12:37:40;;;;;;;2.8;1.2;;;;;;;12.09;44.68555;962.4036;;;;
2019/04/28 12:40:06;;;;;;;2.2;1.2;;;;;;;12.19;45.40039;962.3816;;;;
2019/04/28 12:42:31;;;;;;;2.7;1.2;;;;;;;12.74;47.74805;962.3323;;;;
2019/04/28 12:44:57;;;;;;;2.7;1.4;;;;;;;12.9;43.44922;962.37;;;;
2019/04/28 12:47:22;;;;;;;2.7;1.2;;;;;;;12.64;44.8457;962.42;;;;
2019/04/28 12:49:55;;;;;;;4;1.4;;;;;;;12.35;43.97266;962.2975;;;;
2019/04/28 12:52:13;;;;;;;3;1.4;;;;;;;12.12;46.51367;962.2571;;;;
2019/04/28 12:54:38;;;;;;;3.4;1.4;;;;;;;12.07;47.30566;962.2619;;;;
2019/04/28 12:57:03;;;;;;;3.7;1.5;;;;;;;11.87;46.52051;962.3055;;;;
2019/04/28 12:59:37;;;;;;;3.1;1.4;;;;;;;11.43;47.83496;962.3002;;;;
2019/04/28 13:02:04;;;;;;;2.8;1.3;;;;;;;11.42;47.00293;962.2573;;;;
2019/04/28 13:05:01;;;;;;;2.5;1.1;;;;;;;11.57;49.44238;962.275;;;;
2019/04/28 13:07:02;;;;;;;1.8;1.1;;;;;;;11.6;47.56445;962.2332;;;;
2019/04/28 13:09:11;;;;;;;2.3;0.9;;;;;;;11.93;44.85254;962.1873;;;;
2019/04/28 13:11:36;;;;;;;2.9;1.2;;;;;;;12.08;45.45703;962.2611;;;;
2019/04/28 13:14:01;;;;;;;1.9;1;;;;;;;11.98;44.56934;962.27;;;;
2019/04/28 13:16:26;;;;;;;3;1.2;;;;;;;12.15;44.57617;962.2723;;;;
2019/04/28 13:18:55;;;;;;;2.6;0.9;;;;;;;11.88;43.19727;962.2528;;;;
2019/04/28 13:21:20;;;;;;;2.5;1;;;;;;;12.09;44.7666;962.2206;;;;
2019/04/28 13:23:48;;;;;;;2.1;1.1;;;;;;;12.07;44.97266;962.2267;;;;
2019/04/28 13:26:13;;;;;;;2.7;1.1;;;;;;;12.03;43.1084;962.2089;;;;
2019/04/28 13:28:39;;;;;;;2.4;0.9;;;;;;;12.58;42.21484;962.2294;;;;
2019/04/28 13:31:04;;;;;;;2.8;1;;;;;;;12.85;43.59473;962.1738;;;;
2019/04/28 13:33:29;;;;;;;2.9;1.1;;;;;;;13.19;44.17285;962.1292;;;;
2019/04/28 13:35:55;;;;;;;1.7;0.9;;;;;;;13.81;43.61035;962.1312;;;;
2019/04/28 13:38:20;;;;;;;2.3;1;;;;;;;14.48;42.13184;962.075;;;;
2019/04/28 13:40:46;;;;;;;2.5;1.1;;;;;;;14.59;37.78809;962.0417;;;;
2019/04/28 13:43:11;;;;;;;2.1;1.2;;;;;;;14.85;38.44922;961.9681;;;;
2019/04/28 13:45:36;;;;;;;2.5;1.1;;;;;;;14.96;39.5752;961.9394;;;;
2019/04/28 13:48:01;;;;;;;1.9;1.2;;;;;;;15.58;37.97754;961.8976;;;;
2019/04/28 13:50:32;;;;;;;2.5;1.2;;;;;;;15.19;39.22363;961.8722;;;;
2019/04/28 13:52:51;;;;;;;2.4;1.1;;;;;;;15.61;40.6582;961.741;;;;
2019/04/28 13:55:32;;;;;;;3.9;1.1;;;;;;;16.2;44.68945;961.8236;;;;
2019/04/28 13:57:41;;;;;;;3.2;1.1;;;;;;;16.71;39.94336;961.8045;;;;
2019/04/28 14:00:07;;;;;;;2.3;1;;;;;;;16.76;38.34863;961.7859;;;;
2019/04/28 14:02:41;;;;;;;1.9;1;;;;;;;17.19;39.47266;961.7609;;;;
2019/04/28 14:05:23;;;;;;;2.7;1.3;;;;;;;17.36;36.44824;961.7505;;;;
2019/04/28 14:07:24;;;;;;;2.2;1.2;;;;;;;17.19;38.29199;961.7701;;;;
2019/04/28 14:09:49;;;;;;;2.5;1.2;;;;;;;17.26;36.16016;961.7617;;;;
2019/04/28 14:12:14;;;;;;;3;1.4;;;;;;;16.58;37.5625;961.748;;;;
2019/04/28 14:14:39;;;;;;;4.5;1.3;;;;;;;16.1;39.8291;961.7825;;;;
2019/04/28 14:17:04;;;;;;;2.2;1.3;;;;;;;15.87;42.30176;961.7673;;;;
2019/04/28 14:19:29;;;;;;;2.7;1.2;;;;;;;15.93;40.89746;961.7214;;;;
2019/04/28 14:21:54;;;;;;;2.4;1.2;;;;;;;16.11;39.41113;961.6845;;;;
2019/04/28 14:24:19;;;;;;;2.9;1.3;;;;;;;16.64;35.26855;961.7372;;;;
2019/04/28 14:26:44;;;;;;;3;1.1;;;;;;;16.66;37.89648;961.7611;;;;
2019/04/28 14:29:09;;;;;;;2.6;1.2;;;;;;;16.81;36.61328;961.6663;;;;
2019/04/28 14:31:35;;;;;;;1.9;1;;;;;;;16.42;36.83789;961.7037;;;;
2019/04/28 14:34:00;;;;;;;1.9;1.1;;;;;;;16.65;34.82715;961.6128;;;;
2019/04/28 14:36:26;;;;;;;2;1.1;;;;;;;16.65;33.97363;961.71;;;;
2019/04/28 14:38:51;;;;;;;2.5;1.2;;;;;;;16.57;33.36035;961.6927;;;;
2019/04/28 14:41:16;;;;;;;2.9;1.2;;;;;;;16.85;37.65625;961.7364;;;;
2019/04/28 14:43:41;;;;;;;2.1;1.1;;;;;;;16.91;36.76172;961.7438;;;;
2019/04/28 14:46:06;;;;;;;2.2;1;;;;;;;16.73;34.33008;961.7413;;;;
2019/04/28 14:48:31;;;;;;;2;1;;;;;;;16.05;31.74805;961.682;;;;
2019/04/28 14:50:57;;;;;;;2.6;1.1;;;;;;;15.81;33.87402;961.7121;;;;
2019/04/28 14:53:22;;;;;;;2;0.9;;;;;;;15.02;33.84766;961.6664;;;;
2019/04/28 14:55:47;;;;;;;1.9;1;;;;;;;14.34;34.64258;961.6468;;;;
2019/04/28 14:58:12;;;;;;;2.1;1.2;;;;;;;14;37.06348;961.5933;;;;
2019/04/28 15:00:54;;;;;;;2.7;1.2;;;;;;;13.81;40.20215;961.7026;;;;
2019/04/28 15:03:12;;;;;;;2.2;1.2;;;;;;;13.45;39.60059;961.6808;;;;
2019/04/28 15:11:45;;;;;;;1.5;1.1;;;;;;;12.78;42.01367;961.8359;;;;
2019/04/28 15:14:01;;;;;;;2.3;1.1;;;;;;;12.5;43.96484;961.8915;;;;
2019/04/28 15:16:26;;;;;;;2.5;1.2;;;;;;;12.09;44.47754;961.8596;;;;
2019/04/28 15:18:52;;;;;;;2.5;1.3;;;;;;;11.9;47.70117;961.8022;;;;
2019/04/28 15:21:17;;;;;;;2.6;1.4;;;;;;;11.88;49.84766;961.7906;;;;
2019/04/28 15:23:42;;;;;;;2.9;1.5;;;;;;;11.72;56.27832;961.7701;;;;